sensor_id;sensor_type;location;lat;lon;timestamp;temperature;humidity
29775;DHT22;16676;51.202;6.774;2023-07-13T00:00:59;28.40;39.30
29775;DHT22;16676;51.202;6.774;2023-07-13T00:05:01;28.40;39.30
29775;DHT22;16676;51.202;6.774;2023-07-13T00:09:05;28.40;39.40
29775;DHT22;16676;51.202;6.774;2023-07-13T00:13:07;28.40;39.30
29775;DHT22;16676;51.202;6.774;2023-07-13T00:17:09;28.40;39.40
29775;DHT22;16676;51.202;6.774;2023-07-13T00:21:11;28.40;39.40
29775;DHT22;16676;51.202;6.774;2023-07-13T00:25:15;28.40;39.60
29775;DHT22;16676;51.202;6.774;2023-07-13T00:29:17;28.30;39.50
29775;DHT22;16676;51.202;6.774;2023-07-13T00:33:21;28.30;39.50
29775;DHT22;16676;51.202;6.774;2023-07-13T00:37:23;28.40;39.60
29775;DHT22;16676;51.202;6.774;2023-07-13T00:41:26;28.30;39.40
29775;DHT22;16676;51.202;6.774;2023-07-13T00:50:20;28.20;39.50
29775;DHT22;16676;51.202;6.774;2023-07-13T00:54:24;28.20;39.60
29775;DHT22;16676;51.202;6.774;2023-07-13T00:58:29;28.20;39.50
29775;DHT22;16676;51.202;6.774;2023-07-13T01:02:31;28.20;39.40
29775;DHT22;16676;51.202;6.774;2023-07-13T01:06:34;28.20;39.50
29775;DHT22;16676;51.202;6.774;2023-07-13T01:10:36;28.20;39.60
29775;DHT22;16676;51.202;6.774;2023-07-13T01:14:41;28.20;39.40
29775;DHT22;16676;51.202;6.774;2023-07-13T01:18:43;28.10;39.50
29775;DHT22;16676;51.202;6.774;2023-07-13T01:22:46;28.10;39.40
29775;DHT22;16676;51.202;6.774;2023-07-13T01:26:48;28.10;39.60
29775;DHT22;16676;51.202;6.774;2023-07-13T01:30:50;28.10;39.40
29775;DHT22;16676;51.202;6.774;2023-07-13T01:34:52;28.10;39.60
29775;DHT22;16676;51.202;6.774;2023-07-13T01:38:57;28.10;39.50
29775;DHT22;16676;51.202;6.774;2023-07-13T01:42:58;28.10;39.60
29775;DHT22;16676;51.202;6.774;2023-07-13T01:47:01;28.00;39.70
29775;DHT22;16676;51.202;6.774;2023-07-13T01:51:03;28.00;39.40
29775;DHT22;16676;51.202;6.774;2023-07-13T01:55:07;28.00;39.70
29775;DHT22;16676;51.202;6.774;2023-07-13T01:59:09;28.00;39.60
29775;DHT22;16676;51.202;6.774;2023-07-13T02:03:11;28.00;39.70
29775;DHT22;16676;51.202;6.774;2023-07-13T02:07:18;28.00;39.70
29775;DHT22;16676;51.202;6.774;2023-07-13T02:11:21;28.00;39.70
29775;DHT22;16676;51.202;6.774;2023-07-13T02:15:23;27.90;39.70
29775;DHT22;16676;51.202;6.774;2023-07-13T02:19:25;27.90;39.80
29775;DHT22;16676;51.202;6.774;2023-07-13T02:23:27;27.90;39.80
29775;DHT22;16676;51.202;6.774;2023-07-13T02:27:30;27.90;39.80
29775;DHT22;16676;51.202;6.774;2023-07-13T02:31:32;27.90;39.80
29775;DHT22;16676;51.202;6.774;2023-07-13T02:35:35;27.90;40.00
29775;DHT22;16676;51.202;6.774;2023-07-13T02:39:37;27.90;39.90
29775;DHT22;16676;51.202;6.774;2023-07-13T02:43:40;27.80;40.50
29775;DHT22;16676;51.202;6.774;2023-07-13T02:47:42;27.90;40.00
29775;DHT22;16676;51.202;6.774;2023-07-13T02:51:44;27.80;40.00
29775;DHT22;16676;51.202;6.774;2023-07-13T02:55:46;27.80;40.00
29775;DHT22;16676;51.202;6.774;2023-07-13T02:59:49;27.80;40.10
29775;DHT22;16676;51.202;6.774;2023-07-13T03:03:51;27.80;40.10
29775;DHT22;16676;51.202;6.774;2023-07-13T03:07:53;27.80;40.10
29775;DHT22;16676;51.202;6.774;2023-07-13T03:11:56;27.80;40.10
29775;DHT22;16676;51.202;6.774;2023-07-13T03:15:59;27.70;40.10
29775;DHT22;16676;51.202;6.774;2023-07-13T03:20:01;27.70;40.20
29775;DHT22;16676;51.202;6.774;2023-07-13T03:24:03;27.70;40.20
29775;DHT22;16676;51.202;6.774;2023-07-13T03:28:05;27.70;40.20
29775;DHT22;16676;51.202;6.774;2023-07-13T03:32:09;27.70;40.30
29775;DHT22;16676;51.202;6.774;2023-07-13T03:36:13;27.70;40.30
29775;DHT22;16676;51.202;6.774;2023-07-13T03:40:15;27.70;40.40
29775;DHT22;16676;51.202;6.774;2023-07-13T03:44:18;27.60;40.40
29775;DHT22;16676;51.202;6.774;2023-07-13T03:48:21;27.60;40.40
29775;DHT22;16676;51.202;6.774;2023-07-13T03:52:23;27.60;40.40
29775;DHT22;16676;51.202;6.774;2023-07-13T03:56:25;27.60;40.50
29775;DHT22;16676;51.202;6.774;2023-07-13T04:00:27;27.60;40.50
29775;DHT22;16676;51.202;6.774;2023-07-13T04:04:31;27.60;40.60
29775;DHT22;16676;51.202;6.774;2023-07-13T04:08:34;27.60;40.50
29775;DHT22;16676;51.202;6.774;2023-07-13T04:12:36;27.50;40.40
29775;DHT22;16676;51.202;6.774;2023-07-13T04:16:38;27.50;40.50
29775;DHT22;16676;51.202;6.774;2023-07-13T04:20:42;27.50;40.50
29775;DHT22;16676;51.202;6.774;2023-07-13T04:24:44;27.50;40.50
29775;DHT22;16676;51.202;6.774;2023-07-13T04:28:45;27.50;40.50
29775;DHT22;16676;51.202;6.774;2023-07-13T04:32:48;27.50;40.50
29775;DHT22;16676;51.202;6.774;2023-07-13T04:36:51;27.50;40.50
29775;DHT22;16676;51.202;6.774;2023-07-13T04:40:54;27.50;40.60
29775;DHT22;16676;51.202;6.774;2023-07-13T04:44:57;27.40;40.60
29775;DHT22;16676;51.202;6.774;2023-07-13T04:48:59;27.50;40.60
29775;DHT22;16676;51.202;6.774;2023-07-13T04:53:02;27.50;40.60
29775;DHT22;16676;51.202;6.774;2023-07-13T04:57:06;27.40;40.60
29775;DHT22;16676;51.202;6.774;2023-07-13T05:01:09;27.40;40.50
29775;DHT22;16676;51.202;6.774;2023-07-13T05:05:11;27.40;40.70
29775;DHT22;16676;51.202;6.774;2023-07-13T05:09:14;27.40;40.70
29775;DHT22;16676;51.202;6.774;2023-07-13T05:13:17;27.40;40.80
29775;DHT22;16676;51.202;6.774;2023-07-13T05:17:19;27.40;40.70
29775;DHT22;16676;51.202;6.774;2023-07-13T05:21:21;27.40;40.80
29775;DHT22;16676;51.202;6.774;2023-07-13T05:25:24;27.40;40.80
29775;DHT22;16676;51.202;6.774;2023-07-13T05:29:26;27.40;40.80
29775;DHT22;16676;51.202;6.774;2023-07-13T05:33:28;27.40;40.80
29775;DHT22;16676;51.202;6.774;2023-07-13T05:37:30;27.40;41.00
29775;DHT22;16676;51.202;6.774;2023-07-13T05:41:33;27.40;41.00
29775;DHT22;16676;51.202;6.774;2023-07-13T05:45:36;27.40;41.00
29775;DHT22;16676;51.202;6.774;2023-07-13T05:49:38;27.40;41.10
29775;DHT22;16676;51.202;6.774;2023-07-13T05:53:40;27.30;41.10
29775;DHT22;16676;51.202;6.774;2023-07-13T05:57:43;27.30;41.10
29775;DHT22;16676;51.202;6.774;2023-07-13T06:01:45;27.40;41.20
29775;DHT22;16676;51.202;6.774;2023-07-13T06:05:47;27.40;41.30
29775;DHT22;16676;51.202;6.774;2023-07-13T06:09:49;27.30;41.30
29775;DHT22;16676;51.202;6.774;2023-07-13T06:13:53;27.40;41.40
29775;DHT22;16676;51.202;6.774;2023-07-13T06:17:55;27.30;41.50
29775;DHT22;16676;51.202;6.774;2023-07-13T06:21:57;27.30;41.50
29775;DHT22;16676;51.202;6.774;2023-07-13T06:26:00;27.30;41.50
29775;DHT22;16676;51.202;6.774;2023-07-13T06:30:04;27.30;41.60
29775;DHT22;16676;51.202;6.774;2023-07-13T06:34:06;27.30;41.70
29775;DHT22;16676;51.202;6.774;2023-07-13T06:38:08;27.30;41.70
29775;DHT22;16676;51.202;6.774;2023-07-13T06:42:10;27.30;41.70
29775;DHT22;16676;51.202;6.774;2023-07-13T06:46:13;27.40;41.80
29775;DHT22;16676;51.202;6.774;2023-07-13T06:50:15;27.30;41.80
29775;DHT22;16676;51.202;6.774;2023-07-13T06:54:17;27.30;41.80
29775;DHT22;16676;51.202;6.774;2023-07-13T06:58:19;27.30;41.90
29775;DHT22;16676;51.202;6.774;2023-07-13T07:02:23;27.30;42.00
29775;DHT22;16676;51.202;6.774;2023-07-13T07:06:25;27.30;42.10
29775;DHT22;16676;51.202;6.774;2023-07-13T07:10:28;27.20;42.20
29775;DHT22;16676;51.202;6.774;2023-07-13T07:14:31;27.20;42.20
29775;DHT22;16676;51.202;6.774;2023-07-13T07:18:36;27.30;42.30
29775;DHT22;16676;51.202;6.774;2023-07-13T07:22:38;27.30;42.30
29775;DHT22;16676;51.202;6.774;2023-07-13T07:26:40;27.30;42.40
29775;DHT22;16676;51.202;6.774;2023-07-13T07:30:42;27.30;42.40
29775;DHT22;16676;51.202;6.774;2023-07-13T07:34:46;27.20;42.40
29775;DHT22;16676;51.202;6.774;2023-07-13T07:38:48;27.30;42.50
29775;DHT22;16676;51.202;6.774;2023-07-13T07:42:49;27.30;42.50
29775;DHT22;16676;51.202;6.774;2023-07-13T07:46:51;27.30;42.50
29775;DHT22;16676;51.202;6.774;2023-07-13T07:50:55;27.30;42.60
29775;DHT22;16676;51.202;6.774;2023-07-13T07:54:58;27.30;42.50
29775;DHT22;16676;51.202;6.774;2023-07-13T07:59:00;27.30;42.50
29775;DHT22;16676;51.202;6.774;2023-07-13T08:03:02;27.40;42.50
29775;DHT22;16676;51.202;6.774;2023-07-13T08:07:06;27.40;42.50
29775;DHT22;16676;51.202;6.774;2023-07-13T08:11:08;27.40;42.60
29775;DHT22;16676;51.202;6.774;2023-07-13T08:15:13;27.40;42.60
29775;DHT22;16676;51.202;6.774;2023-07-13T08:19:15;27.40;42.70
29775;DHT22;16676;51.202;6.774;2023-07-13T08:23:19;27.40;42.80
29775;DHT22;16676;51.202;6.774;2023-07-13T08:27:21;27.40;42.80
29775;DHT22;16676;51.202;6.774;2023-07-13T08:31:22;27.40;42.80
29775;DHT22;16676;51.202;6.774;2023-07-13T08:35:24;27.40;42.90
29775;DHT22;16676;51.202;6.774;2023-07-13T08:39:29;27.40;42.80
29775;DHT22;16676;51.202;6.774;2023-07-13T08:43:35;27.50;42.80
29775;DHT22;16676;51.202;6.774;2023-07-13T08:47:56;27.50;42.80
29775;DHT22;16676;51.202;6.774;2023-07-13T08:52:03;27.50;42.90
29775;DHT22;16676;51.202;6.774;2023-07-13T08:56:13;27.50;42.90
29775;DHT22;16676;51.202;6.774;2023-07-13T09:00:18;27.50;42.90
29775;DHT22;16676;51.202;6.774;2023-07-13T09:04:23;27.60;43.10
29775;DHT22;16676;51.202;6.774;2023-07-13T09:08:37;27.60;43.10
29775;DHT22;16676;51.202;6.774;2023-07-13T09:12:59;27.60;43.10
29775;DHT22;16676;51.202;6.774;2023-07-13T09:17:04;27.60;43.20
29775;DHT22;16676;51.202;6.774;2023-07-13T09:21:10;27.60;43.10
29775;DHT22;16676;51.202;6.774;2023-07-13T09:25:23;27.60;43.10
29775;DHT22;16676;51.202;6.774;2023-07-13T09:29:29;27.60;43.20
29775;DHT22;16676;51.202;6.774;2023-07-13T09:33:33;27.60;43.20
29775;DHT22;16676;51.202;6.774;2023-07-13T09:37:35;27.50;43.10
29775;DHT22;16676;51.202;6.774;2023-07-13T09:41:43;27.60;43.20
29775;DHT22;16676;51.202;6.774;2023-07-13T09:45:50;27.60;43.30
29775;DHT22;16676;51.202;6.774;2023-07-13T09:49:55;27.60;43.20
29775;DHT22;16676;51.202;6.774;2023-07-13T09:53:58;27.60;43.20
29775;DHT22;16676;51.202;6.774;2023-07-13T09:58:04;27.50;43.20
29775;DHT22;16676;51.202;6.774;2023-07-13T10:02:27;27.50;43.20
29775;DHT22;16676;51.202;6.774;2023-07-13T10:06:29;27.50;43.20
29775;DHT22;16676;51.202;6.774;2023-07-13T10:10:31;27.60;43.30
29775;DHT22;16676;51.202;6.774;2023-07-13T10:14:33;27.60;43.20
29775;DHT22;16676;51.202;6.774;2023-07-13T10:18:41;27.60;43.20
29775;DHT22;16676;51.202;6.774;2023-07-13T10:22:50;27.60;43.10
29775;DHT22;16676;51.202;6.774;2023-07-13T10:26:56;27.60;43.10
29775;DHT22;16676;51.202;6.774;2023-07-13T10:31:01;27.60;43.10
29775;DHT22;16676;51.202;6.774;2023-07-13T10:35:05;27.60;43.10
29775;DHT22;16676;51.202;6.774;2023-07-13T10:39:16;27.60;43.20
29775;DHT22;16676;51.202;6.774;2023-07-13T10:43:22;27.60;43.20
29775;DHT22;16676;51.202;6.774;2023-07-13T10:47:26;27.60;43.20
29775;DHT22;16676;51.202;6.774;2023-07-13T10:51:30;27.60;43.20
29775;DHT22;16676;51.202;6.774;2023-07-13T10:55:34;27.60;43.20
29775;DHT22;16676;51.202;6.774;2023-07-13T10:59:37;27.60;43.20
29775;DHT22;16676;51.202;6.774;2023-07-13T11:03:49;27.60;43.20
29775;DHT22;16676;51.202;6.774;2023-07-13T11:07:55;27.60;43.20
29775;DHT22;16676;51.202;6.774;2023-07-13T11:11:59;27.60;43.10
29775;DHT22;16676;51.202;6.774;2023-07-13T11:16:12;27.60;43.10
29775;DHT22;16676;51.202;6.774;2023-07-13T11:20:23;27.60;43.10
29775;DHT22;16676;51.202;6.774;2023-07-13T11:29:08;27.70;42.90
29775;DHT22;16676;51.202;6.774;2023-07-13T11:33:14;27.70;42.90
29775;DHT22;16676;51.202;6.774;2023-07-13T11:37:19;27.80;42.90
29775;DHT22;16676;51.202;6.774;2023-07-13T11:41:24;27.80;42.80
29775;DHT22;16676;51.202;6.774;2023-07-13T11:45:30;27.80;42.80
29775;DHT22;16676;51.202;6.774;2023-07-13T11:49:40;27.80;42.70
29775;DHT22;16676;51.202;6.774;2023-07-13T11:53:46;27.80;42.60
29775;DHT22;16676;51.202;6.774;2023-07-13T11:57:50;27.90;42.40
29775;DHT22;16676;51.202;6.774;2023-07-13T12:01:55;27.90;43.10
29775;DHT22;16676;51.202;6.774;2023-07-13T12:05:59;27.90;42.30
29775;DHT22;16676;51.202;6.774;2023-07-13T12:10:02;27.90;42.30
29775;DHT22;16676;51.202;6.774;2023-07-13T12:14:04;27.90;42.20
29775;DHT22;16676;51.202;6.774;2023-07-13T12:18:14;27.90;42.10
29775;DHT22;16676;51.202;6.774;2023-07-13T12:22:17;27.90;41.90
29775;DHT22;16676;51.202;6.774;2023-07-13T12:26:20;27.90;41.80
29775;DHT22;16676;51.202;6.774;2023-07-13T12:30:25;27.90;41.70
29775;DHT22;16676;51.202;6.774;2023-07-13T12:34:30;28.00;41.60
29775;DHT22;16676;51.202;6.774;2023-07-13T12:38:32;27.90;41.60
29775;DHT22;16676;51.202;6.774;2023-07-13T12:42:38;27.90;41.40
29775;DHT22;16676;51.202;6.774;2023-07-13T12:46:53;28.00;41.30
29775;DHT22;16676;51.202;6.774;2023-07-13T12:51:01;28.00;41.30
29775;DHT22;16676;51.202;6.774;2023-07-13T12:55:06;28.00;41.10
29775;DHT22;16676;51.202;6.774;2023-07-13T12:59:18;28.00;41.20
29775;DHT22;16676;51.202;6.774;2023-07-13T13:03:26;28.00;41.00
29775;DHT22;16676;51.202;6.774;2023-07-13T13:07:33;28.00;41.00
29775;DHT22;16676;51.202;6.774;2023-07-13T13:11:35;28.00;41.00
29775;DHT22;16676;51.202;6.774;2023-07-13T13:15:37;28.00;40.90
29775;DHT22;16676;51.202;6.774;2023-07-13T13:19:39;28.10;40.80
29775;DHT22;16676;51.202;6.774;2023-07-13T13:23:42;28.00;40.80
29775;DHT22;16676;51.202;6.774;2023-07-13T13:27:46;28.10;40.90
29775;DHT22;16676;51.202;6.774;2023-07-13T13:31:48;28.00;40.60
29775;DHT22;16676;51.202;6.774;2023-07-13T13:35:50;28.00;40.70
29775;DHT22;16676;51.202;6.774;2023-07-13T13:39:53;28.00;40.60
29775;DHT22;16676;51.202;6.774;2023-07-13T13:43:56;28.00;40.60
29775;DHT22;16676;51.202;6.774;2023-07-13T13:47:58;28.00;40.70
29775;DHT22;16676;51.202;6.774;2023-07-13T13:52:00;28.00;40.60
29775;DHT22;16676;51.202;6.774;2023-07-13T13:56:04;28.00;40.60
29775;DHT22;16676;51.202;6.774;2023-07-13T14:00:09;28.00;40.60
29775;DHT22;16676;51.202;6.774;2023-07-13T14:04:17;28.00;40.50
29775;DHT22;16676;51.202;6.774;2023-07-13T14:08:20;28.00;40.50
29775;DHT22;16676;51.202;6.774;2023-07-13T14:12:23;28.00;40.50
29775;DHT22;16676;51.202;6.774;2023-07-13T14:16:28;28.10;40.60
29775;DHT22;16676;51.202;6.774;2023-07-13T14:20:33;28.00;40.60
29775;DHT22;16676;51.202;6.774;2023-07-13T14:24:34;28.00;40.60
29775;DHT22;16676;51.202;6.774;2023-07-13T14:28:40;28.10;40.60
29775;DHT22;16676;51.202;6.774;2023-07-13T14:32:43;28.00;40.60
29775;DHT22;16676;51.202;6.774;2023-07-13T14:36:48;28.00;40.60
29775;DHT22;16676;51.202;6.774;2023-07-13T14:40:51;28.00;40.70
29775;DHT22;16676;51.202;6.774;2023-07-13T14:44:54;28.00;40.70
29775;DHT22;16676;51.202;6.774;2023-07-13T14:49:01;28.00;40.80
29775;DHT22;16676;51.202;6.774;2023-07-13T14:53:04;28.00;40.90
29775;DHT22;16676;51.202;6.774;2023-07-13T14:57:09;28.00;40.80
29775;DHT22;16676;51.202;6.774;2023-07-13T15:01:14;27.90;40.70
29775;DHT22;16676;51.202;6.774;2023-07-13T15:05:19;28.00;40.90
29775;DHT22;16676;51.202;6.774;2023-07-13T15:09:22;28.00;41.10
29775;DHT22;16676;51.202;6.774;2023-07-13T15:13:26;27.90;41.40
29775;DHT22;16676;51.202;6.774;2023-07-13T15:17:35;27.90;41.70
29775;DHT22;16676;51.202;6.774;2023-07-13T15:21:37;27.90;42.10
29775;DHT22;16676;51.202;6.774;2023-07-13T15:25:42;27.90;42.40
29775;DHT22;16676;51.202;6.774;2023-07-13T15:29:44;27.90;42.50
29775;DHT22;16676;51.202;6.774;2023-07-13T15:33:49;27.90;42.60
29775;DHT22;16676;51.202;6.774;2023-07-13T15:37:51;27.90;42.80
29775;DHT22;16676;51.202;6.774;2023-07-13T15:41:54;27.90;42.80
29775;DHT22;16676;51.202;6.774;2023-07-13T15:45:56;27.90;42.80
29775;DHT22;16676;51.202;6.774;2023-07-13T15:50:00;27.90;42.80
29775;DHT22;16676;51.202;6.774;2023-07-13T15:54:03;27.90;42.80
29775;DHT22;16676;51.202;6.774;2023-07-13T15:58:11;27.90;42.90
29775;DHT22;16676;51.202;6.774;2023-07-13T16:02:17;27.90;42.90
29775;DHT22;16676;51.202;6.774;2023-07-13T16:06:23;27.90;42.90
29775;DHT22;16676;51.202;6.774;2023-07-13T16:10:30;27.90;43.00
29775;DHT22;16676;51.202;6.774;2023-07-13T16:14:33;27.90;43.00
29775;DHT22;16676;51.202;6.774;2023-07-13T16:18:35;27.80;43.00
29775;DHT22;16676;51.202;6.774;2023-07-13T16:22:38;27.90;43.10
29775;DHT22;16676;51.202;6.774;2023-07-13T16:26:41;27.80;43.10
29775;DHT22;16676;51.202;6.774;2023-07-13T16:30:43;27.80;43.10
29775;DHT22;16676;51.202;6.774;2023-07-13T16:34:45;27.80;43.10
29775;DHT22;16676;51.202;6.774;2023-07-13T16:38:50;27.80;43.10
29775;DHT22;16676;51.202;6.774;2023-07-13T16:42:55;27.80;43.10
29775;DHT22;16676;51.202;6.774;2023-07-13T16:46:58;27.80;43.10
29775;DHT22;16676;51.202;6.774;2023-07-13T16:51:01;27.80;43.10
29775;DHT22;16676;51.202;6.774;2023-07-13T16:55:09;27.80;43.00
29775;DHT22;16676;51.202;6.774;2023-07-13T16:59:14;27.70;42.90
29775;DHT22;16676;51.202;6.774;2023-07-13T17:03:17;27.70;42.90
29775;DHT22;16676;51.202;6.774;2023-07-13T17:07:19;27.70;42.90
29775;DHT22;16676;51.202;6.774;2023-07-13T17:11:23;27.70;42.90
29775;DHT22;16676;51.202;6.774;2023-07-13T17:15:27;27.70;42.90
29775;DHT22;16676;51.202;6.774;2023-07-13T17:19:30;27.70;42.90
29775;DHT22;16676;51.202;6.774;2023-07-13T17:23:35;27.70;42.90
29775;DHT22;16676;51.202;6.774;2023-07-13T17:27:40;27.70;42.90
29775;DHT22;16676;51.202;6.774;2023-07-13T17:31:42;27.70;42.90
29775;DHT22;16676;51.202;6.774;2023-07-13T17:35:45;27.70;42.90
29775;DHT22;16676;51.202;6.774;2023-07-13T17:39:47;27.70;42.90
29775;DHT22;16676;51.202;6.774;2023-07-13T17:43:51;27.70;42.80
29775;DHT22;16676;51.202;6.774;2023-07-13T17:47:53;27.70;42.80
29775;DHT22;16676;51.202;6.774;2023-07-13T17:51:56;27.70;42.90
29775;DHT22;16676;51.202;6.774;2023-07-13T17:55:57;27.60;42.70
29775;DHT22;16676;51.202;6.774;2023-07-13T18:00:01;27.60;42.80
29775;DHT22;16676;51.202;6.774;2023-07-13T18:04:13;27.70;42.80
29775;DHT22;16676;51.202;6.774;2023-07-13T18:08:21;27.60;42.80
29775;DHT22;16676;51.202;6.774;2023-07-13T18:12:24;27.60;42.80
29775;DHT22;16676;51.202;6.774;2023-07-13T18:16:28;27.60;42.80
29775;DHT22;16676;51.202;6.774;2023-07-13T18:20:32;27.60;42.80
29775;DHT22;16676;51.202;6.774;2023-07-13T18:24:34;27.60;42.80
29775;DHT22;16676;51.202;6.774;2023-07-13T18:28:37;27.60;42.80
29775;DHT22;16676;51.202;6.774;2023-07-13T18:32:42;27.50;42.70
29775;DHT22;16676;51.202;6.774;2023-07-13T18:36:46;27.50;42.70
29775;DHT22;16676;51.202;6.774;2023-07-13T18:40:48;27.50;42.70
29775;DHT22;16676;51.202;6.774;2023-07-13T18:44:50;27.50;42.60
29775;DHT22;16676;51.202;6.774;2023-07-13T18:48:54;27.50;42.60
29775;DHT22;16676;51.202;6.774;2023-07-13T18:52:56;27.50;42.60
29775;DHT22;16676;51.202;6.774;2023-07-13T18:56:58;27.50;42.50
29775;DHT22;16676;51.202;6.774;2023-07-13T19:01:01;27.50;42.60
29775;DHT22;16676;51.202;6.774;2023-07-13T19:05:13;27.40;42.50
29775;DHT22;16676;51.202;6.774;2023-07-13T19:09:15;27.40;42.50
29775;DHT22;16676;51.202;6.774;2023-07-13T19:13:20;27.40;42.50
29775;DHT22;16676;51.202;6.774;2023-07-13T19:17:23;27.40;42.60
29775;DHT22;16676;51.202;6.774;2023-07-13T19:21:34;27.40;42.50
29775;DHT22;16676;51.202;6.774;2023-07-13T19:25:38;27.40;42.50
29775;DHT22;16676;51.202;6.774;2023-07-13T19:29:41;27.40;42.60
29775;DHT22;16676;51.202;6.774;2023-07-13T19:33:43;27.40;42.60
29775;DHT22;16676;51.202;6.774;2023-07-13T19:37:46;27.30;42.60
29775;DHT22;16676;51.202;6.774;2023-07-13T19:41:48;27.30;42.60
29775;DHT22;16676;51.202;6.774;2023-07-13T19:45:51;27.30;42.60
29775;DHT22;16676;51.202;6.774;2023-07-13T19:49:54;27.30;42.60
29775;DHT22;16676;51.202;6.774;2023-07-13T19:54:01;27.30;42.70
29775;DHT22;16676;51.202;6.774;2023-07-13T19:58:03;27.30;42.70
29775;DHT22;16676;51.202;6.774;2023-07-13T20:02:07;27.30;42.80
29775;DHT22;16676;51.202;6.774;2023-07-13T20:06:25;27.20;42.80
29775;DHT22;16676;51.202;6.774;2023-07-13T20:10:31;27.20;42.90
29775;DHT22;16676;51.202;6.774;2023-07-13T20:14:34;27.20;43.20
29775;DHT22;16676;51.202;6.774;2023-07-13T20:18:36;27.20;43.00
29775;DHT22;16676;51.202;6.774;2023-07-13T20:22:38;27.20;43.00
29775;DHT22;16676;51.202;6.774;2023-07-13T20:26:41;27.20;43.00
29775;DHT22;16676;51.202;6.774;2023-07-13T20:30:46;27.20;43.10
29775;DHT22;16676;51.202;6.774;2023-07-13T20:34:49;27.20;43.10
29775;DHT22;16676;51.202;6.774;2023-07-13T20:38:51;27.10;43.10
29775;DHT22;16676;51.202;6.774;2023-07-13T20:42:54;27.20;43.20
29775;DHT22;16676;51.202;6.774;2023-07-13T20:46:56;27.20;43.20
29775;DHT22;16676;51.202;6.774;2023-07-13T20:51:02;27.10;43.20
29775;DHT22;16676;51.202;6.774;2023-07-13T20:55:12;27.10;43.20
29775;DHT22;16676;51.202;6.774;2023-07-13T20:59:15;27.10;43.20
29775;DHT22;16676;51.202;6.774;2023-07-13T21:03:20;27.10;43.30
29775;DHT22;16676;51.202;6.774;2023-07-13T21:07:22;27.10;43.40
29775;DHT22;16676;51.202;6.774;2023-07-13T21:11:25;27.10;43.40
29775;DHT22;16676;51.202;6.774;2023-07-13T21:15:32;27.10;43.50
29775;DHT22;16676;51.202;6.774;2023-07-13T21:19:34;27.10;43.50
29775;DHT22;16676;51.202;6.774;2023-07-13T21:23:36;27.00;43.60
29775;DHT22;16676;51.202;6.774;2023-07-13T21:27:38;27.00;43.60
29775;DHT22;16676;51.202;6.774;2023-07-13T21:31:42;27.00;43.60
29775;DHT22;16676;51.202;6.774;2023-07-13T21:35:44;27.00;43.70
29775;DHT22;16676;51.202;6.774;2023-07-13T21:39:50;27.00;43.70
29775;DHT22;16676;51.202;6.774;2023-07-13T21:43:53;27.00;43.90
29775;DHT22;16676;51.202;6.774;2023-07-13T21:47:56;27.00;43.70
29775;DHT22;16676;51.202;6.774;2023-07-13T21:51:58;27.00;43.80
29775;DHT22;16676;51.202;6.774;2023-07-13T21:56:02;27.00;43.90
29775;DHT22;16676;51.202;6.774;2023-07-13T22:00:05;26.90;43.90
29775;DHT22;16676;51.202;6.774;2023-07-13T22:04:13;27.00;43.90
29775;DHT22;16676;51.202;6.774;2023-07-13T22:08:17;26.90;43.90
29775;DHT22;16676;51.202;6.774;2023-07-13T22:12:19;26.90;43.90
29775;DHT22;16676;51.202;6.774;2023-07-13T22:16:24;26.90;44.00
29775;DHT22;16676;51.202;6.774;2023-07-13T22:20:27;26.90;44.10
29775;DHT22;16676;51.202;6.774;2023-07-13T22:24:29;26.90;44.10
29775;DHT22;16676;51.202;6.774;2023-07-13T22:28:32;26.90;44.20
29775;DHT22;16676;51.202;6.774;2023-07-13T22:32:34;26.90;44.20
29775;DHT22;16676;51.202;6.774;2023-07-13T22:36:37;26.90;44.20
29775;DHT22;16676;51.202;6.774;2023-07-13T22:40:39;26.90;44.20
29775;DHT22;16676;51.202;6.774;2023-07-13T22:44:41;26.90;44.20
29775;DHT22;16676;51.202;6.774;2023-07-13T22:48:49;26.90;44.20
29775;DHT22;16676;51.202;6.774;2023-07-13T22:52:53;26.90;44.30
29775;DHT22;16676;51.202;6.774;2023-07-13T22:56:55;26.90;44.30
29775;DHT22;16676;51.202;6.774;2023-07-13T23:00:58;26.80;44.30
29775;DHT22;16676;51.202;6.774;2023-07-13T23:05:01;26.80;44.30
29775;DHT22;16676;51.202;6.774;2023-07-13T23:09:08;26.80;44.30
29775;DHT22;16676;51.202;6.774;2023-07-13T23:13:12;26.80;44.30
29775;DHT22;16676;51.202;6.774;2023-07-13T23:17:14;26.80;44.30
29775;DHT22;16676;51.202;6.774;2023-07-13T23:21:18;26.80;44.40
29775;DHT22;16676;51.202;6.774;2023-07-13T23:25:23;26.80;44.40
29775;DHT22;16676;51.202;6.774;2023-07-13T23:29:26;26.80;44.50
29775;DHT22;16676;51.202;6.774;2023-07-13T23:33:28;26.80;44.50
29775;DHT22;16676;51.202;6.774;2023-07-13T23:37:30;26.80;44.50
29775;DHT22;16676;51.202;6.774;2023-07-13T23:41:33;26.80;44.50
29775;DHT22;16676;51.202;6.774;2023-07-13T23:45:35;26.80;44.60
29775;DHT22;16676;51.202;6.774;2023-07-13T23:49:37;26.80;44.60
29775;DHT22;16676;51.202;6.774;2023-07-13T23:53:39;26.80;44.70
29775;DHT22;16676;51.202;6.774;2023-07-13T23:57:44;26.80;44.60
